Time;durP1;ratioP1;P1;durP2;ratioP2;P2;SDS_P1;SDS_P2;PMS_P1;PMS_P2;Temp;Humidity;BMP_temperature;BMP_pressure;BME280_temperature;BME280_humidity;BME280_pressure;Samples;Min_cycle;Max_cycle;Signal;HPM_P1;HPM_P2
2022/04/04 00:02:20;;;;;;;4.00;3.30;;;3.20;97.30;;;;;;5011579;28;20181;-87
2022/04/04 00:04:46;;;;;;;5.20;3.63;;;3.20;97.30;;;;;;5011018;28;20220;-87
2022/04/04 00:07:12;;;;;;;3.80;3.60;;;3.20;97.30;;;;;;5011221;28;20217;-87
2022/04/04 00:09:37;;;;;;;5.63;3.60;;;3.20;97.30;;;;;;5011352;28;20177;-88
2022/04/04 00:12:03;;;;;;;4.13;3.43;;;3.20;97.30;;;;;;5011200;28;20209;-88
2022/04/04 00:14:28;;;;;;;9.33;3.70;;;3.20;97.30;;;;;;5010777;28;20631;-88
2022/04/04 00:16:54;;;;;;;4.50;3.40;;;3.20;97.30;;;;;;5011321;28;20542;-88
2022/04/04 00:19:19;;;;;;;8.40;4.47;;;3.20;97.30;;;;;;5011379;28;20655;-89
2022/04/04 00:21:45;;;;;;;5.67;3.60;;;3.20;97.30;;;;;;5010671;28;20367;-87
2022/04/04 00:24:10;;;;;;;5.10;4.20;;;3.20;97.30;;;;;;5043801;28;20378;-87
2022/04/04 00:26:36;;;;;;;4.77;3.30;;;3.20;97.30;;;;;;5011158;28;20266;-87
2022/04/04 00:29:02;;;;;;;4.57;3.57;;;3.20;97.30;;;;;;5012494;28;20174;-88
2022/04/04 00:31:27;;;;;;;5.73;4.20;;;3.20;97.30;;;;;;5011147;28;20511;-88
2022/04/04 00:33:53;;;;;;;8.77;4.30;;;3.10;97.30;;;;;;5011140;28;20188;-87
2022/04/04 00:36:19;;;;;;;8.37;4.37;;;3.10;97.30;;;;;;5011096;28;20275;-87
2022/04/04 00:38:44;;;;;;;6.57;4.70;;;3.10;97.30;;;;;;5011122;28;20185;-88
2022/04/04 00:41:13;;;;;;;12.70;5.40;;;3.10;97.30;;;;;;5011076;28;20468;-87
2022/04/04 00:43:39;;;;;;;6.73;4.37;;;3.00;97.30;;;;;;5010252;28;20178;-86
2022/04/04 00:46:05;;;;;;;7.70;4.70;;;3.00;97.30;;;;;;5010773;28;20428;-87
2022/04/04 00:48:31;;;;;;;8.10;4.87;;;3.00;97.30;;;;;;5010875;28;20729;-87
2022/04/04 00:50:56;;;;;;;7.60;5.53;;;3.00;97.30;;;;;;5010866;28;20444;-87
2022/04/04 00:53:22;;;;;;;10.83;6.50;;;2.90;97.30;;;;;;5010678;28;20208;-86
2022/04/04 00:55:48;;;;;;;13.47;6.67;;;2.90;97.30;;;;;;5022006;28;20188;-87
2022/04/04 00:58:17;;;;;;;12.67;7.03;;;2.90;97.30;;;;;;5030392;28;20473;-87
2022/04/04 01:00:45;;;;;;;9.00;6.00;;;2.80;97.30;;;;;;5030403;28;20545;-87
2022/04/04 01:03:11;;;;;;;11.83;6.60;;;2.90;97.30;;;;;;5031548;28;20957;-87
2022/04/04 01:05:36;;;;;;;11.27;6.83;;;2.80;97.30;;;;;;5031348;28;20407;-87
2022/04/04 01:08:02;;;;;;;10.50;6.13;;;2.80;97.30;;;;;;5030029;28;20223;-88
2022/04/04 01:10:28;;;;;;;10.93;5.93;;;2.80;97.30;;;;;;5029913;28;20690;-87
2022/04/04 01:12:55;;;;;;;8.70;5.07;;;2.80;97.30;;;;;;5029841;28;20188;-87
2022/04/04 01:15:23;;;;;;;8.20;5.47;;;2.70;97.30;;;;;;5029761;28;20423;-87
2022/04/04 01:17:50;;;;;;;8.50;5.43;;;2.70;97.30;;;;;;5031293;28;20425;-87
2022/04/04 01:20:16;;;;;;;8.97;5.90;;;2.70;97.30;;;;;;5029669;28;20530;-87
2022/04/04 01:22:46;;;;;;;9.60;5.90;;;2.70;97.30;;;;;;5019463;28;20883;-87
2022/04/04 01:25:12;;;;;;;6.70;5.00;;;2.70;97.30;;;;;;5010100;28;20228;-87
2022/04/04 01:27:39;;;;;;;11.00;6.37;;;2.70;97.30;;;;;;5010104;28;20845;-87
2022/04/04 01:30:07;;;;;;;7.87;5.33;;;2.70;97.30;;;;;;5009869;28;20454;-87
2022/04/04 01:32:34;;;;;;;8.87;6.50;;;2.60;97.30;;;;;;5009665;28;20416;-87
2022/04/04 01:35:00;;;;;;;7.17;5.17;;;2.60;97.30;;;;;;5010967;28;20408;-87
2022/04/04 01:37:25;;;;;;;13.17;6.10;;;2.60;97.30;;;;;;5042644;28;20764;-87
2022/04/04 01:39:51;;;;;;;7.77;4.80;;;2.50;97.30;;;;;;5011194;28;20177;-87
2022/04/04 01:42:16;;;;;;;7.10;5.17;;;2.50;97.30;;;;;;5043125;28;20551;-87
2022/04/04 01:44:42;;;;;;;8.30;5.70;;;2.50;97.30;;;;;;5042568;28;20312;-87
2022/04/04 01:47:07;;;;;;;12.70;5.87;;;2.50;97.30;;;;;;5009973;28;20188;-87
2022/04/04 01:49:33;;;;;;;6.80;5.53;;;2.40;97.30;;;;;;5009437;28;20243;-88
2022/04/04 01:51:58;;;;;;;9.73;5.27;;;2.40;97.30;;;;;;5009721;28;20201;-87
2022/04/04 01:54:24;;;;;;;11.30;6.10;;;2.40;97.30;;;;;;5009157;28;20193;-88
2022/04/04 01:56:49;;;;;;;10.70;5.50;;;2.30;97.30;;;;;;5008563;28;20189;-87
2022/04/04 01:59:15;;;;;;;6.77;4.57;;;2.30;97.30;;;;;;5009719;28;20208;-87
2022/04/04 02:01:41;;;;;;;11.57;5.70;;;2.30;97.30;;;;;;5009379;28;20240;-87
2022/04/04 02:04:09;;;;;;;9.73;5.67;;;2.20;97.30;;;;;;5008947;28;20251;-87
2022/04/04 02:06:35;;;;;;;8.93;5.30;;;2.20;97.30;;;;;;5010345;28;20425;-87
2022/04/04 02:09:00;;;;;;;7.73;5.77;;;2.20;97.30;;;;;;5009160;28;20597;-86
2022/04/04 02:11:26;;;;;;;7.97;5.37;;;2.20;97.30;;;;;;5009111;28;20197;-86
2022/04/04 02:13:52;;;;;;;8.50;5.10;;;2.10;97.30;;;;;;5009101;28;20181;-87
2022/04/04 02:16:18;;;;;;;9.03;5.07;;;2.10;97.30;;;;;;5011114;28;20407;-87
2022/04/04 02:18:43;;;;;;;11.53;5.40;;;2.10;97.30;;;;;;5009305;28;20447;-87
2022/04/04 02:21:09;;;;;;;8.33;5.63;;;2.10;97.30;;;;;;5009096;28;20599;-88
2022/04/04 02:23:35;;;;;;;9.17;5.10;;;2.00;97.30;;;;;;4991365;28;20249;-86
2022/04/04 02:26:02;;;;;;;8.13;5.10;;;2.00;97.30;;;;;;4989349;28;20409;-87
2022/04/04 02:28:28;;;;;;;7.73;4.73;;;2.00;97.30;;;;;;4989157;28;20508;-87
2022/04/04 02:30:54;;;;;;;10.87;5.07;;;1.90;97.30;;;;;;4989107;28;20887;-87
2022/04/04 02:33:21;;;;;;;8.00;4.60;;;1.90;97.30;;;;;;4990181;28;20413;-88
2022/04/04 02:35:51;;;;;;;7.77;4.90;;;1.90;97.30;;;;;;4988774;28;20417;-87
2022/04/04 02:38:19;;;;;;;9.60;5.30;;;1.90;97.30;;;;;;4990717;28;20413;-88
2022/04/04 02:40:45;;;;;;;7.30;4.93;;;1.80;97.30;;;;;;5004606;28;20464;-87
2022/04/04 02:43:11;;;;;;;10.83;5.63;;;1.80;97.30;;;;;;5008602;28;20432;-87
2022/04/04 02:45:36;;;;;;;9.30;5.40;;;1.80;97.30;;;;;;5009433;28;20173;-87
2022/04/04 02:48:02;;;;;;;8.37;5.20;;;1.80;97.30;;;;;;5008505;28;20423;-87
2022/04/04 02:50:28;;;;;;;8.53;5.00;;;1.70;97.30;;;;;;5009279;28;20283;-87
2022/04/04 02:52:54;;;;;;;12.93;5.90;;;1.70;97.30;;;;;;5008145;28;20187;-87
2022/04/04 02:58:04;;;;;;;7.33;4.83;;;1.70;97.30;;;;;;5030204;28;20230;-87
2022/04/04 03:00:30;;;;;;;7.30;4.90;;;1.60;97.30;;;;;;5027687;28;20471;-86
2022/04/04 03:02:57;;;;;;;6.73;4.97;;;1.60;97.30;;;;;;5029467;28;20169;-88
2022/04/04 03:05:22;;;;;;;8.50;5.23;;;1.60;97.30;;;;;;5027782;28;20179;-86
2022/04/04 03:07:48;;;;;;;10.33;5.60;;;1.60;97.30;;;;;;5027749;28;20842;-88
2022/04/04 03:10:15;;;;;;;9.83;5.47;;;1.60;97.30;;;;;;5028224;28;20671;-88
2022/04/04 03:12:41;;;;;;;9.77;5.40;;;1.50;97.30;;;;;;5028582;28;20434;-88
2022/04/04 03:15:16;;;;;;;11.63;4.67;;;1.50;97.30;;;;;;5029390;28;20408;-88
2022/04/04 03:17:43;;;;;;;9.43;5.77;;;1.50;97.30;;;;;;5027785;28;20517;-88
2022/04/04 03:20:10;;;;;;;8.37;5.00;;;1.50;97.30;;;;;;5027528;28;20459;-88
2022/04/04 03:22:41;;;;;;;10.17;5.00;;;1.50;97.30;;;;;;5019420;28;20455;-89
2022/04/04 03:25:11;;;;;;;9.27;5.40;;;1.40;97.30;;;;;;5007854;28;20419;-88
2022/04/04 03:27:37;;;;;;;7.90;5.33;;;1.40;97.30;;;;;;5007885;28;20419;-89
2022/04/04 03:30:05;;;;;;;7.47;4.60;;;1.40;97.30;;;;;;5009799;28;20416;-88
2022/04/04 03:32:31;;;;;;;9.37;5.80;;;1.50;97.30;;;;;;5007673;28;20466;-86
2022/04/04 03:34:57;;;;;;;8.00;5.57;;;1.50;97.30;;;;;;5008156;28;20507;-88
2022/04/04 03:37:24;;;;;;;8.63;5.57;;;1.50;97.30;;;;;;5009092;28;20494;-88
2022/04/04 03:39:50;;;;;;;8.40;5.57;;;1.50;97.30;;;;;;5040957;28;20188;-87
2022/04/04 03:42:16;;;;;;;10.33;5.93;;;1.50;97.30;;;;;;5041429;28;20420;-88
2022/04/04 03:44:41;;;;;;;9.87;5.90;;;1.50;97.30;;;;;;5008907;28;20419;-89
2022/04/04 03:47:07;;;;;;;10.00;6.10;;;1.60;97.30;;;;;;5007819;28;20498;-88
2022/04/04 03:49:33;;;;;;;12.13;6.00;;;1.60;97.30;;;;;;5010260;28;20177;-87
2022/04/04 03:51:58;;;;;;;13.40;6.70;;;1.60;97.30;;;;;;5009331;28;20675;-88
2022/04/04 03:54:24;;;;;;;10.57;6.10;;;1.60;97.30;;;;;;5009100;28;20276;-87
2022/04/04 03:56:50;;;;;;;10.53;6.00;;;1.60;97.30;;;;;;5005966;28;20653;-87
2022/04/04 03:59:15;;;;;;;12.67;6.50;;;1.60;97.30;;;;;;4991244;28;20506;-88
2022/04/04 04:01:40;;;;;;;10.90;6.40;;;1.60;97.30;;;;;;4988346;28;20209;-89
2022/04/04 04:04:06;;;;;;;15.50;6.57;;;1.60;97.30;;;;;;4988534;28;20174;-88
2022/04/04 04:06:33;;;;;;;16.53;6.47;;;1.50;97.30;;;;;;5004792;28;20208;-88
2022/04/04 04:08:59;;;;;;;11.97;6.87;;;1.60;97.30;;;;;;4988527;28;20174;-88
2022/04/04 04:11:25;;;;;;;12.17;5.97;;;1.60;97.30;;;;;;4989337;28;20441;-88
2022/04/04 04:13:50;;;;;;;8.93;5.93;;;1.50;97.30;;;;;;4988091;28;20435;-88
2022/04/04 04:16:16;;;;;;;10.90;6.33;;;1.50;97.30;;;;;;4988480;28;20928;-87
2022/04/04 04:18:42;;;;;;;10.83;5.90;;;1.50;97.30;;;;;;4987983;28;20276;-87
2022/04/04 04:21:09;;;;;;;13.63;7.63;;;1.50;97.30;;;;;;4991551;28;20276;-88
2022/04/04 04:23:38;;;;;;;12.73;7.20;;;1.50;97.30;;;;;;5010256;28;20216;-88
2022/04/04 04:26:06;;;;;;;14.67;7.13;;;1.50;97.30;;;;;;5011386;28;20415;-88
2022/04/04 04:28:32;;;;;;;13.33;6.80;;;1.50;97.30;;;;;;5011333;28;20439;-87
2022/04/04 04:31:01;;;;;;;14.80;7.70;;;1.50;97.30;;;;;;5010936;28;20850;-88
2022/04/04 04:33:27;;;;;;;10.87;6.20;;;1.50;97.30;;;;;;5011205;28;20455;-89
2022/04/04 04:35:53;;;;;;;11.77;6.83;;;1.50;97.30;;;;;;5011043;28;20518;-88
2022/04/04 04:38:19;;;;;;;13.00;7.43;;;1.50;97.30;;;;;;5012399;28;20791;-89
2022/04/04 04:40:44;;;;;;;14.03;7.17;;;1.50;97.30;;;;;;5010923;28;20550;-87
2022/04/04 04:43:10;;;;;;;14.90;7.83;;;1.50;97.30;;;;;;5043844;28;20458;-88
2022/04/04 04:45:36;;;;;;;13.20;7.40;;;1.50;97.30;;;;;;5012158;28;20205;-87
2022/04/04 04:48:01;;;;;;;13.67;6.93;;;1.50;97.30;;;;;;5010867;28;20664;-88
2022/04/04 04:50:27;;;;;;;12.77;6.70;;;1.50;97.30;;;;;;5012190;28;20259;-88
2022/04/04 04:52:54;;;;;;;15.33;6.93;;;1.50;97.30;;;;;;5010855;28;20191;-88
2022/04/04 04:55:22;;;;;;;13.60;7.43;;;1.50;97.30;;;;;;5018363;28;20428;-90
2022/04/04 04:57:48;;;;;;;14.27;6.50;;;1.50;97.30;;;;;;5030662;28;20914;-88
2022/04/04 05:00:16;;;;;;;13.90;7.77;;;1.40;97.30;;;;;;5030445;28;20965;-87
2022/04/04 05:02:42;;;;;;;13.43;7.63;;;1.40;97.30;;;;;;5030286;28;20532;-88
2022/04/04 05:05:08;;;;;;;13.93;7.77;;;1.50;97.30;;;;;;5031507;28;20914;-87
2022/04/04 05:07:34;;;;;;;12.37;6.70;;;1.50;97.30;;;;;;5030474;28;20212;-87
2022/04/04 05:10:00;;;;;;;12.27;7.40;;;1.50;97.30;;;;;;5030367;28;20901;-87
2022/04/04 05:12:25;;;;;;;16.43;9.10;;;1.50;97.30;;;;;;5015216;28;20193;-88
2022/04/04 05:14:51;;;;;;;16.10;7.40;;;1.50;97.30;;;;;;5017347;28;20415;-87
2022/04/04 05:17:16;;;;;;;12.73;6.73;;;1.50;97.30;;;;;;5025497;28;20553;-87
2022/04/04 05:19:42;;;;;;;13.53;7.17;;;1.50;97.30;;;;;;5030113;28;20200;-86
2022/04/04 05:22:08;;;;;;;13.33;7.10;;;1.50;97.30;;;;;;5023984;28;20228;-88
2022/04/04 05:24:35;;;;;;;13.13;7.53;;;1.50;97.30;;;;;;5010580;28;20191;-88
2022/04/04 05:27:00;;;;;;;14.93;7.53;;;1.50;97.30;;;;;;5012099;28;20227;-88
2022/04/04 05:29:26;;;;;;;11.73;6.67;;;1.50;97.30;;;;;;5020044;28;20917;-87
2022/04/04 05:31:54;;;;;;;18.50;8.20;;;1.60;97.30;;;;;;5029974;28;20220;-88
2022/04/04 05:34:20;;;;;;;13.23;6.90;;;1.60;97.30;;;;;;5029492;28;20910;-88
2022/04/04 05:36:46;;;;;;;16.67;7.20;;;1.60;97.30;;;;;;5029813;28;20498;-87
2022/04/04 05:39:12;;;;;;;14.17;8.60;;;1.70;97.30;;;;;;5029548;28;20510;-87
2022/04/04 05:41:37;;;;;;;14.47;7.60;;;1.70;97.30;;;;;;5029649;28;20985;-88
2022/04/04 05:44:04;;;;;;;17.20;7.57;;;1.70;97.30;;;;;;5030851;28;20720;-87
2022/04/04 05:46:30;;;;;;;19.50;8.80;;;1.80;97.30;;;;;;5020352;28;20177;-88
2022/04/04 05:48:56;;;;;;;15.53;7.80;;;1.80;97.30;;;;;;5009932;28;20416;-89
2022/04/04 05:51:21;;;;;;;15.40;7.37;;;1.90;97.30;;;;;;5010472;28;20466;-88
2022/04/04 05:53:47;;;;;;;14.67;6.93;;;2.00;97.30;;;;;;5009866;28;20192;-87
2022/04/04 05:56:13;;;;;;;14.60;7.17;;;2.10;97.30;;;;;;5011564;28;20196;-87
2022/04/04 05:58:40;;;;;;;13.87;7.60;;;2.20;97.30;;;;;;5009976;28;20567;-88
2022/04/04 06:01:08;;;;;;;15.90;6.70;;;2.20;97.30;;;;;;5009830;28;20224;-87
2022/04/04 06:03:33;;;;;;;19.07;9.03;;;2.30;97.30;;;;;;5008848;28;20648;-87
2022/04/04 06:06:01;;;;;;;13.83;7.57;;;2.40;97.30;;;;;;5016592;28;20973;-88
2022/04/04 06:08:26;;;;;;;14.50;7.40;;;2.40;97.30;;;;;;5006218;28;20173;-88
2022/04/04 06:10:52;;;;;;;13.40;7.80;;;2.50;97.30;;;;;;5008562;28;20440;-88
2022/04/04 06:13:19;;;;;;;15.00;7.93;;;2.60;97.30;;;;;;5004218;28;20225;-87
2022/04/04 06:15:45;;;;;;;18.57;7.43;;;2.70;97.30;;;;;;4997673;28;20428;-88
2022/04/04 06:18:12;;;;;;;15.13;7.33;;;2.80;97.30;;;;;;5000977;28;20431;-88
2022/04/04 06:20:38;;;;;;;20.17;9.20;;;2.90;97.30;;;;;;5008358;28;20856;-88
2022/04/04 06:23:04;;;;;;;13.10;6.67;;;3.00;96.90;;;;;;5003043;28;20437;-88
2022/04/04 06:25:30;;;;;;;12.40;6.83;;;3.00;96.60;;;;;;5003064;28;20187;-88
2022/04/04 06:27:56;;;;;;;11.77;6.10;;;3.20;96.50;;;;;;5008977;28;20479;-88
2022/04/04 06:30:22;;;;;;;11.40;6.67;;;3.20;96.30;;;;;;5002577;28;20445;-87
2022/04/04 06:32:48;;;;;;;14.30;8.43;;;3.30;96.00;;;;;;5000904;28;20185;-87
2022/04/04 06:35:15;;;;;;;13.07;7.10;;;3.40;96.00;;;;;;5007159;28;20448;-87
2022/04/04 06:37:42;;;;;;;16.00;8.00;;;3.60;95.70;;;;;;5006808;28;20753;-88
2022/04/04 06:40:08;;;;;;;12.33;6.60;;;3.70;95.20;;;;;;5008776;28;20844;-89
2022/04/04 06:42:35;;;;;;;10.93;6.47;;;3.80;94.70;;;;;;5008634;28;20420;-89
2022/04/04 06:45:01;;;;;;;12.43;6.53;;;3.90;94.60;;;;;;5009186;28;20868;-87
2022/04/04 06:47:26;;;;;;;11.93;7.07;;;4.00;94.50;;;;;;5009276;28;20441;-87
2022/04/04 06:49:52;;;;;;;17.13;7.30;;;4.00;94.30;;;;;;5009194;28;20193;-87
2022/04/04 06:52:19;;;;;;;13.03;6.83;;;4.10;94.00;;;;;;5009102;28;20173;-89
2022/04/04 06:54:44;;;;;;;13.53;6.93;;;4.10;93.80;;;;;;5010291;28;20181;-88
2022/04/04 06:57:10;;;;;;;10.97;6.97;;;4.30;93.90;;;;;;5009353;28;20421;-89
2022/04/04 06:59:35;;;;;;;16.30;6.37;;;4.40;93.20;;;;;;5008964;28;20783;-88
2022/04/04 07:02:01;;;;;;;14.33;7.33;;;4.50;92.60;;;;;;5008616;28;20755;-88
2022/04/04 07:04:26;;;;;;;15.00;6.23;;;4.70;92.30;;;;;;5008193;28;20173;-89
2022/04/04 07:06:52;;;;;;;13.03;6.57;;;4.80;91.80;;;;;;5008429;28;20272;-88
2022/04/04 07:09:17;;;;;;;14.73;7.30;;;4.90;91.90;;;;;;5008078;28;20315;-88
2022/04/04 07:11:43;;;;;;;13.37;7.13;;;5.10;91.70;;;;;;5008692;28;20220;-89
2022/04/04 07:14:10;;;;;;;11.40;7.20;;;5.20;91.20;;;;;;5008346;28;20180;-87
2022/04/04 07:16:36;;;;;;;14.90;8.57;;;5.40;90.80;;;;;;5008210;28;20173;-88
2022/04/04 07:19:02;;;;;;;16.23;7.50;;;5.40;90.60;;;;;;5008314;28;20789;-90
2022/04/04 07:21:28;;;;;;;13.10;7.83;;;5.40;90.40;;;;;;5024601;28;20500;-88
2022/04/04 07:23:54;;;;;;;15.60;8.50;;;5.40;90.60;;;;;;5008034;28;20719;-88
2022/04/04 07:26:21;;;;;;;15.03;7.67;;;5.40;90.50;;;;;;5008674;28;20412;-88
2022/04/04 07:28:47;;;;;;;13.87;7.00;;;5.40;90.20;;;;;;5008502;28;20427;-88
2022/04/04 07:31:14;;;;;;;14.10;7.87;;;5.50;90.10;;;;;;5008441;28;20428;-89
2022/04/04 07:33:40;;;;;;;19.37;8.40;;;5.50;90.30;;;;;;5008678;28;20187;-87
2022/04/04 07:36:06;;;;;;;15.60;9.33;;;5.60;89.70;;;;;;5008176;28;20794;-89
2022/04/04 07:38:32;;;;;;;15.20;8.00;;;5.50;89.40;;;;;;5041574;28;20231;-88
2022/04/04 07:40:58;;;;;;;15.43;8.80;;;5.60;89.80;;;;;;5008254;28;20278;-88
2022/04/04 07:43:23;;;;;;;13.23;7.53;;;5.70;89.80;;;;;;5008292;28;20820;-89
2022/04/04 07:45:49;;;;;;;19.53;8.60;;;5.90;89.10;;;;;;5008267;28;20219;-87
2022/04/04 07:48:14;;;;;;;14.53;8.80;;;5.90;88.70;;;;;;5010273;28;20181;-89
2022/04/04 07:50:42;;;;;;;14.07;8.20;;;5.90;88.40;;;;;;5008389;28;20668;-88
2022/04/04 07:53:07;;;;;;;16.90;8.73;;;5.90;88.60;;;;;;5008353;28;20181;-88
2022/04/04 07:55:33;;;;;;;14.63;8.67;;;5.90;88.30;;;;;;5010924;28;20839;-87
2022/04/04 07:57:59;;;;;;;16.77;9.40;;;6.00;88.40;;;;;;5011823;28;20181;-87
2022/04/04 08:00:24;;;;;;;16.47;8.47;;;6.20;88.30;;;;;;5011817;28;20467;-89
2022/04/04 08:02:50;;;;;;;16.73;8.13;;;6.20;87.40;;;;;;5012089;28;20647;-87
2022/04/04 08:05:16;;;;;;;14.63;8.37;;;6.00;87.20;;;;;;5011995;28;20196;-89
2022/04/04 08:07:46;;;;;;;15.17;8.23;;;5.90;87.60;;;;;;5045015;28;20898;-89
2022/04/04 08:10:11;;;;;;;13.87;9.03;;;5.90;87.90;;;;;;5011778;28;20209;-89
2022/04/04 08:12:37;;;;;;;13.93;7.57;;;6.00;87.60;;;;;;5011876;28;20442;-88
2022/04/04 08:15:03;;;;;;;16.70;8.57;;;6.00;87.50;;;;;;5012246;28;20220;-88
2022/04/04 08:17:28;;;;;;;15.70;8.33;;;6.10;87.40;;;;;;5036318;28;20637;-88
2022/04/04 08:19:54;;;;;;;15.30;8.37;;;6.10;87.70;;;;;;5011997;28;20478;-88
2022/04/04 08:22:20;;;;;;;16.57;8.20;;;6.00;87.30;;;;;;5011942;28;20241;-88
2022/04/04 08:24:45;;;;;;;20.07;8.33;;;5.90;87.50;;;;;;5011848;28;20173;-89
2022/04/04 08:27:11;;;;;;;14.30;8.63;;;5.90;87.90;;;;;;5031388;28;20407;-87
2022/04/04 08:29:37;;;;;;;17.20;8.50;;;5.80;88.00;;;;;;5031608;28;20527;-88
2022/04/04 08:32:03;;;;;;;18.70;8.40;;;5.80;88.00;;;;;;5030947;28;20200;-88
2022/04/04 08:34:29;;;;;;;17.10;8.13;;;5.80;87.90;;;;;;5022219;28;20415;-87
2022/04/04 08:36:55;;;;;;;13.87;7.53;;;5.90;88.30;;;;;;5011555;28;20507;-87
2022/04/04 08:39:20;;;;;;;11.47;8.00;;;5.90;88.00;;;;;;5011311;28;20177;-88
2022/04/04 08:41:46;;;;;;;19.67;8.40;;;6.00;87.70;;;;;;5010528;28;20292;-88
2022/04/04 08:44:14;;;;;;;17.07;7.83;;;6.10;87.30;;;;;;5011443;28;20177;-89
2022/04/04 08:46:41;;;;;;;12.57;7.10;;;6.10;86.80;;;;;;5010949;28;20224;-88
2022/04/04 08:49:07;;;;;;;16.70;8.40;;;6.00;87.10;;;;;;5011414;28;20420;-88
2022/04/04 08:51:34;;;;;;;14.93;8.40;;;6.00;87.00;;;;;;5020982;28;20976;-88
2022/04/04 08:54:00;;;;;;;15.87;7.60;;;6.10;87.00;;;;;;5031058;28;20223;-88
2022/04/04 08:56:27;;;;;;;16.30;8.27;;;6.10;86.40;;;;;;5030601;28;20881;-88
2022/04/04 08:58:53;;;;;;;14.10;7.23;;;6.40;87.50;;;;;;5030728;28;20506;-89
2022/04/04 09:01:20;;;;;;;12.60;7.60;;;6.60;86.00;;;;;;5030905;28;20489;-87
2022/04/04 09:03:52;;;;;;;11.57;6.87;;;6.60;85.60;;;;;;5030369;28;20864;-89
2022/04/04 09:06:18;;;;;;;18.97;8.03;;;6.70;85.40;;;;;;5030409;28;20469;-89
2022/04/04 09:08:46;;;;;;;13.40;6.60;;;6.50;85.10;;;;;;5031150;28;20443;-91
2022/04/04 09:11:13;;;;;;;15.43;8.40;;;6.70;85.20;;;;;;5030300;28;20200;-88
2022/04/04 09:13:39;;;;;;;13.90;7.60;;;6.80;85.10;;;;;;5030559;28;20450;-89
2022/04/04 09:16:07;;;;;;;12.20;6.50;;;7.10;84.60;;;;;;5030609;28;20438;-89
2022/04/04 09:18:43;;;;;;;15.07;6.73;;;7.10;84.30;;;;;;5030926;28;20670;-89
2022/04/04 09:21:18;;;;;;;14.10;6.90;;;7.00;83.80;;;;;;5030762;28;20506;-90
2022/04/04 09:23:50;;;;;;;9.50;5.60;;;6.90;84.30;;;;;;5011868;28;20968;-88
2022/04/04 09:26:31;;;;;;;12.27;6.73;;;6.90;84.20;;;;;;5024717;28;20463;-89
2022/04/04 09:29:16;;;;;;;10.10;6.70;;;7.00;84.70;;;;;;5030607;28;20415;-89
2022/04/04 09:32:05;;;;;;;13.10;6.40;;;7.10;83.40;;;;;;5030159;28;20439;-89
2022/04/04 09:34:57;;;;;;;13.00;6.90;;;7.20;83.70;;;;;;5031532;28;20476;-90
2022/04/04 09:37:24;;;;;;;14.70;6.80;;;7.30;82.80;;;;;;5030176;28;20419;-87
2022/04/04 09:39:51;;;;;;;10.80;6.60;;;7.20;83.30;;;;;;5031438;28;20411;-89
2022/04/04 09:42:20;;;;;;;10.10;5.97;;;7.20;82.60;;;;;;5029812;28;20538;-89
2022/04/04 09:45:05;;;;;;;13.03;7.43;;;7.30;83.10;;;;;;5030599;28;20458;-89
2022/04/04 09:47:54;;;;;;;9.70;6.10;;;7.60;82.20;;;;;;5030454;28;20496;-88
2022/04/04 09:50:50;;;;;;;12.17;7.53;;;7.70;82.20;;;;;;5030892;28;20964;-88
2022/04/04 09:53:19;;;;;;;14.63;7.37;;;7.90;81.60;;;;;;5030368;28;20502;-89
2022/04/04 09:55:52;;;;;;;13.30;7.00;;;7.80;80.90;;;;;;5030053;28;20434;-88
2022/04/04 09:58:32;;;;;;;10.77;6.67;;;7.70;81.00;;;;;;5031518;28;20901;-89
2022/04/04 10:00:59;;;;;;;10.27;5.40;;;7.90;80.50;;;;;;5003833;28;20472;-89
2022/04/04 10:03:25;;;;;;;12.00;5.47;;;7.70;79.50;;;;;;4990607;28;20425;-87
2022/04/04 10:05:56;;;;;;;10.70;5.60;;;7.60;79.50;;;;;;4991908;28;20926;-88
2022/04/04 10:08:24;;;;;;;9.57;5.23;;;7.50;79.70;;;;;;4989941;28;20541;-88
2022/04/04 10:10:53;;;;;;;13.13;6.77;;;7.50;80.20;;;;;;4989915;28;20441;-88
2022/04/04 10:13:23;;;;;;;14.93;6.50;;;7.80;80.60;;;;;;4989941;28;20924;-88
2022/04/04 10:15:50;;;;;;;10.03;6.57;;;7.90;80.10;;;;;;4989948;28;20429;-88
2022/04/04 10:18:16;;;;;;;12.57;6.20;;;8.00;79.80;;;;;;4989072;28;20832;-88
2022/04/04 10:20:42;;;;;;;8.17;5.80;;;8.00;79.40;;;;;;4989677;28;20496;-89
2022/04/04 10:23:11;;;;;;;12.30;6.60;;;7.90;79.20;;;;;;5016548;28;20213;-88
2022/04/04 10:25:37;;;;;;;8.50;5.00;;;7.90;79.60;;;;;;5007930;28;20192;-90
2022/04/04 10:28:03;;;;;;;9.43;5.80;;;7.90;78.80;;;;;;5003016;28;20919;-87
2022/04/04 10:30:34;;;;;;;9.30;5.40;;;8.00;79.50;;;;;;5003829;28;20447;-88
2022/04/04 10:32:59;;;;;;;7.63;4.93;;;8.40;79.20;;;;;;4998175;28;20445;-88
2022/04/04 10:35:28;;;;;;;14.50;5.60;;;8.40;77.70;;;;;;5005443;28;20452;-87
2022/04/04 10:37:57;;;;;;;8.60;4.23;;;8.30;77.50;;;;;;4998421;28;20641;-88
2022/04/04 10:40:26;;;;;;;6.23;3.50;;;8.30;76.30;;;;;;4990056;28;20494;-88
2022/04/04 10:43:10;;;;;;;7.90;4.50;;;8.10;75.80;;;;;;4989982;28;20417;-87
2022/04/04 10:45:56;;;;;;;8.33;3.87;;;7.90;76.70;;;;;;4990980;28;20496;-89
2022/04/04 10:48:34;;;;;;;8.00;4.77;;;7.90;76.40;;;;;;4989572;28;20610;-88
2022/04/04 10:51:12;;;;;;;7.67;5.17;;;8.00;76.70;;;;;;4989925;28;20449;-90
2022/04/04 10:53:40;;;;;;;4.83;3.60;;;8.00;76.60;;;;;;4991596;28;20567;-88
2022/04/04 10:56:08;;;;;;;7.20;3.50;;;8.00;75.70;;;;;;4990054;28;20975;-91
2022/04/04 10:58:35;;;;;;;13.33;3.97;;;8.00;75.20;;;;;;4991316;28;20467;-89
2022/04/04 11:01:07;;;;;;;6.27;4.53;;;8.00;74.90;;;;;;4988987;28;20464;-88
2022/04/04 11:03:36;;;;;;;14.13;4.50;;;8.10;75.30;;;;;;4989457;28;20966;-89
2022/04/04 11:09:05;;;;;;;8.03;4.50;;;8.50;74.10;;;;;;5010270;28;20411;-89
2022/04/04 11:11:47;;;;;;;5.47;3.53;;;8.30;73.80;;;;;;5010048;28;20745;-88
2022/04/04 11:14:17;;;;;;;6.90;3.90;;;8.40;73.80;;;;;;5009773;28;20536;-90
2022/04/04 11:17:08;;;;;;;5.80;4.47;;;8.30;74.30;;;;;;5014600;28;20439;-88
2022/04/04 11:19:57;;;;;;;5.47;3.93;;;8.50;74.30;;;;;;5010208;28;20806;-92
2022/04/04 11:22:25;;;;;;;5.97;4.90;;;8.70;74.20;;;;;;5000240;28;20498;-88
2022/04/04 11:25:05;;;;;;;9.33;4.20;;;8.60;74.10;;;;;;4995341;28;20920;-88
2022/04/04 11:27:35;;;;;;;8.33;5.10;;;8.50;74.50;;;;;;5028494;28;20449;-89
2022/04/04 11:30:10;;;;;;;7.50;5.10;;;8.80;75.30;;;;;;5028700;28;20462;-88
2022/04/04 11:32:40;;;;;;;8.00;5.07;;;9.00;74.40;;;;;;5028961;28;20429;-89
2022/04/04 11:35:20;;;;;;;7.20;5.13;;;8.90;73.80;;;;;;5020124;28;20974;-89
2022/04/04 11:37:48;;;;;;;8.83;5.20;;;8.60;73.90;;;;;;5008821;28;20428;-89
2022/04/04 11:40:17;;;;;;;7.70;5.63;;;8.50;74.70;;;;;;5009955;28;20455;-89
2022/04/04 11:42:45;;;;;;;9.00;4.77;;;8.80;74.30;;;;;;5008705;28;20918;-88
2022/04/04 11:45:16;;;;;;;10.57;5.90;;;8.80;73.80;;;;;;5010556;28;20408;-89
2022/04/04 11:47:58;;;;;;;7.60;5.13;;;8.90;74.00;;;;;;5008850;28;20450;-88
2022/04/04 11:50:30;;;;;;;7.77;4.70;;;8.80;73.10;;;;;;5023381;28;20443;-89
2022/04/04 11:53:02;;;;;;;6.67;5.03;;;8.80;73.00;;;;;;5008354;28;20442;-88
2022/04/04 11:55:31;;;;;;;5.10;4.60;;;8.80;73.40;;;;;;5010180;28;20425;-90
2022/04/04 11:57:59;;;;;;;10.40;5.00;;;8.50;73.30;;;;;;5008547;28;20926;-90
2022/04/04 12:00:27;;;;;;;6.90;4.40;;;8.40;73.50;;;;;;5004269;28;20909;-89
2022/04/04 12:02:54;;;;;;;7.67;4.60;;;8.30;73.70;;;;;;5008020;28;20421;-90
2022/04/04 12:05:24;;;;;;;9.00;4.60;;;8.30;73.50;;;;;;5008865;28;20515;-90
2022/04/04 12:07:51;;;;;;;12.13;5.47;;;8.40;73.60;;;;;;5006663;28;20664;-90
2022/04/04 12:10:35;;;;;;;7.53;4.77;;;8.40;73.70;;;;;;5006011;28;20989;-91
2022/04/04 12:13:04;;;;;;;10.03;5.33;;;8.30;74.10;;;;;;5007915;28;20515;-89
2022/04/04 12:15:34;;;;;;;9.23;5.40;;;8.20;74.10;;;;;;5005525;28;20844;-89
2022/04/04 12:18:02;;;;;;;9.90;5.53;;;8.10;74.50;;;;;;5003391;28;20417;-90
2022/04/04 12:20:44;;;;;;;6.13;4.10;;;8.00;74.70;;;;;;5005525;28;20855;-89
2022/04/04 12:25:57;;;;;;;8.87;5.40;;;8.00;74.80;;;;;;5007221;28;20443;-89
2022/04/04 12:28:30;;;;;;;8.93;5.17;;;7.90;74.80;;;;;;5004907;28;20451;-90
2022/04/04 12:30:56;;;;;;;6.30;4.70;;;7.80;75.10;;;;;;4999865;28;20441;-89
2022/04/04 12:33:31;;;;;;;7.30;5.03;;;7.90;75.30;;;;;;5006317;28;20996;-90
2022/04/04 12:35:57;;;;;;;8.57;6.23;;;7.90;75.50;;;;;;5027802;28;20426;-89
2022/04/04 12:38:31;;;;;;;10.93;5.90;;;7.90;75.50;;;;;;5027511;28;20778;-90
2022/04/04 12:41:01;;;;;;;7.20;4.83;;;7.90;75.30;;;;;;5028153;28;20508;-89
2022/04/04 12:43:26;;;;;;;10.30;5.27;;;7.80;75.40;;;;;;5011538;28;20424;-90
2022/04/04 12:45:52;;;;;;;6.40;3.97;;;7.80;75.50;;;;;;5011550;28;20844;-89
2022/04/04 12:48:18;;;;;;;8.63;5.83;;;7.60;76.10;;;;;;5010619;28;20180;-89
2022/04/04 12:50:50;;;;;;;6.70;4.63;;;7.30;77.10;;;;;;5009488;28;20215;-89
2022/04/04 12:53:19;;;;;;;6.47;5.03;;;7.30;77.90;;;;;;5010158;28;20184;-90
2022/04/04 12:56:06;;;;;;;12.63;6.67;;;7.30;78.30;;;;;;5011396;28;20415;-88
2022/04/04 12:58:32;;;;;;;9.80;4.83;;;7.30;79.90;;;;;;5015431;28;20470;-89
2022/04/04 13:01:10;;;;;;;7.00;3.17;;;7.10;82.10;;;;;;5029014;28;20494;-90
2022/04/04 13:03:47;;;;;;;8.17;5.23;;;6.80;82.40;;;;;;5030980;28;20411;-90